Time,TemperatureF,DewpointF,PressureIn,WindDirection,WindDirectionDegrees,WindSpeedMPH,WindSpeedGustMPH,Humidity,HourlyPrecipIn,Conditions,Clouds,dailyrainin,SoftwareType,DateUTC
2013-11-10 00:00:00,70.9,63.3,30.10,ESE,102,2.0,5.0,77,0.00,,,0.00,meteohub,2013-11-10 05:00:00,
2013-11-10 00:01:00,70.9,63.3,30.10,ESE,102,3.0,5.0,77,0.00,,,0.00,meteohub,2013-11-10 05:01:00,
2013-11-10 00:02:00,70.9,63.3,30.10,ESE,102,2.0,5.0,77,0.00,,,0.00,meteohub,2013-11-10 05:02:00,
2013-11-10 00:03:00,70.9,63.3,30.10,ESE,102,3.0,5.0,77,0.00,,,0.00,meteohub,2013-11-10 05:03:00,
2013-11-10 00:08:00,70.9,63.7,30.10,ESE,102,1.0,5.0,78,0.00,,,0.00,meteohub,2013-11-10 05:08:00,
2013-11-10 00:10:00,70.9,63.7,30.10,ESE,102,1.0,5.0,78,0.00,,,0.00,meteohub,2013-11-10 05:10:00,
2013-11-10 00:15:00,70.9,63.7,30.10,ESE,102,2.0,5.0,78,0.00,,,0.00,meteohub,2013-11-10 05:15:00,
2013-11-10 00:20:00,70.9,63.7,30.10,ENE,67,2.0,4.0,78,0.00,,,0.00,meteohub,2013-11-10 05:20:00,
2013-11-10 00:25:00,70.9,63.7,30.10,ENE,68,2.0,5.0,78,0.00,,,0.00,meteohub,2013-11-10 05:25:00,
2013-11-10 00:30:00,70.9,64.0,30.10,ENE,68,1.0,5.0,79,0.00,,,0.00,meteohub,2013-11-10 05:30:00,
2013-11-10 00:35:00,70.7,63.9,30.10,ENE,68,0.0,5.0,79,0.00,,,0.00,meteohub,2013-11-10 05:35:00,
2013-11-10 00:40:00,70.5,63.7,30.10,ENE,68,2.0,4.0,79,0.00,,,0.00,meteohub,2013-11-10 05:40:00,
2013-11-10 00:45:00,70.5,63.7,30.09,ENE,68,0.0,3.0,79,0.00,,,0.00,meteohub,2013-11-10 05:45:00,
2013-11-10 00:50:00,70.5,63.7,30.09,ENE,68,1.0,4.0,79,0.00,,,0.00,meteohub,2013-11-10 05:50:00,
2013-11-10 00:55:00,70.3,63.5,30.09,ENE,68,2.0,4.0,79,0.00,,,0.00,meteohub,2013-11-10 05:55:00,
2013-11-10 01:00:00,70.3,63.5,30.09,ENE,68,3.0,4.0,79,0.00,,,0.00,meteohub,2013-11-10 06:00:00,
2013-11-10 01:05:00,70.2,63.3,30.09,ENE,67,2.0,4.0,79,0.00,,,0.00,meteohub,2013-11-10 06:05:00,
2013-11-10 01:10:00,70.0,63.5,30.09,ENE,67,0.0,4.0,80,0.00,,,0.00,meteohub,2013-11-10 06:10:00,
2013-11-10 01:15:00,70.0,63.5,30.09,ENE,67,2.0,4.0,80,0.00,,,0.00,meteohub,2013-11-10 06:15:00,
2013-11-10 01:20:00,69.8,63.3,30.09,SE,140,1.0,4.0,80,0.00,,,0.00,meteohub,2013-11-10 06:20:00,
2013-11-10 01:25:00,69.6,63.1,30.09,SE,136,1.0,4.0,80,0.00,,,0.00,meteohub,2013-11-10 06:25:00,
2013-11-10 01:30:00,69.6,63.5,30.09,ESE,118,2.0,5.0,81,0.00,,,0.00,meteohub,2013-11-10 06:30:00,
2013-11-10 01:36:00,69.4,63.3,30.09,ESE,117,2.0,5.0,81,0.00,,,0.00,meteohub,2013-11-10 06:36:00,
2013-11-10 01:41:00,69.3,63.1,30.09,East,94,2.0,7.0,81,0.00,,,0.00,meteohub,2013-11-10 06:41:00,
2013-11-10 01:46:00,69.3,63.1,30.09,East,93,2.0,7.0,81,0.00,,,0.00,meteohub,2013-11-10 06:46:00,
2013-11-10 01:51:00,69.1,63.0,30.08,East,92,2.0,7.0,81,0.00,,,0.00,meteohub,2013-11-10 06:51:00,
2013-11-10 01:56:00,68.9,63.1,30.08,East,91,1.0,6.0,82,0.00,,,0.00,meteohub,2013-11-10 06:56:00,
2013-11-10 02:01:00,68.7,63.0,30.07,East,91,3.0,6.0,82,0.00,,,0.00,meteohub,2013-11-10 07:01:00,
2013-11-10 02:06:00,68.5,62.8,30.07,East,91,5.0,6.0,82,0.00,,,0.00,meteohub,2013-11-10 07:06:00,
2013-11-10 02:11:00,68.5,62.8,30.07,East,90,3.0,5.0,82,0.00,,,0.00,meteohub,2013-11-10 07:11:00,
2013-11-10 02:16:00,68.5,62.8,30.07,East,90,3.0,6.0,82,0.00,,,0.00,meteohub,2013-11-10 07:16:00,
2013-11-10 02:21:00,68.5,63.1,30.07,East,90,2.0,6.0,83,0.00,,,0.00,meteohub,2013-11-10 07:21:00,
2013-11-10 02:26:00,68.4,63.0,30.07,East,89,2.0,6.0,83,0.00,,,0.00,meteohub,2013-11-10 07:26:00,
2013-11-10 02:31:00,68.2,62.8,30.07,East,89,1.0,5.0,83,0.00,,,0.00,meteohub,2013-11-10 07:31:00,
2013-11-10 02:36:00,68.2,62.8,30.07,East,89,0.0,5.0,83,0.00,,,0.00,meteohub,2013-11-10 07:36:00,
2013-11-10 02:41:00,68.0,62.6,30.07,East,89,2.0,5.0,83,0.00,,,0.00,meteohub,2013-11-10 07:41:00,
2013-11-10 02:46:00,67.8,62.4,30.07,East,89,1.0,5.0,83,0.00,,,0.00,meteohub,2013-11-10 07:46:00,
2013-11-10 02:52:00,67.8,62.4,30.07,East,89,2.0,5.0,83,0.00,,,0.00,meteohub,2013-11-10 07:52:00,
2013-11-10 02:57:00,67.6,62.6,30.07,East,89,2.0,5.0,84,0.00,,,0.00,meteohub,2013-11-10 07:57:00,
2013-11-10 03:02:00,67.6,62.6,30.07,East,89,0.0,3.0,84,0.00,,,0.00,meteohub,2013-11-10 08:02:00,
2013-11-10 03:07:00,67.6,62.6,30.07,East,89,1.0,3.0,84,0.00,,,0.00,meteohub,2013-11-10 08:07:00,
2013-11-10 03:12:00,67.5,62.4,30.07,East,89,1.0,3.0,84,0.00,,,0.00,meteohub,2013-11-10 08:12:00,
2013-11-10 03:17:00,67.5,62.4,30.08,East,89,1.0,5.0,84,0.00,,,0.00,meteohub,2013-11-10 08:17:00,
2013-11-10 03:22:00,67.5,62.4,30.08,East,89,1.0,5.0,84,0.00,,,0.00,meteohub,2013-11-10 08:22:00,
2013-11-10 03:27:00,67.5,62.4,30.07,East,89,1.0,3.0,84,0.00,,,0.00,meteohub,2013-11-10 08:27:00,
2013-11-10 03:32:00,67.5,62.4,30.07,East,89,0.0,3.0,84,0.00,,,0.00,meteohub,2013-11-10 08:32:00,
2013-11-10 03:37:00,67.5,62.4,30.07,East,89,2.0,3.0,84,0.00,,,0.00,meteohub,2013-11-10 08:37:00,
2013-11-10 03:42:00,67.5,62.4,30.07,East,88,2.0,3.0,84,0.00,,,0.00,meteohub,2013-11-10 08:42:00,
2013-11-10 03:47:00,67.5,62.4,30.07,East,87,2.0,5.0,84,0.00,,,0.00,meteohub,2013-11-10 08:47:00,
2013-11-10 03:52:00,67.5,62.4,30.07,East,87,1.0,5.0,84,0.00,,,0.00,meteohub,2013-11-10 08:52:00,
2013-11-10 03:57:00,67.5,62.1,30.07,East,87,2.0,5.0,83,0.00,,,0.00,meteohub,2013-11-10 08:57:00,
2013-11-10 04:02:00,67.3,61.9,30.07,East,87,2.0,5.0,83,0.00,,,0.00,meteohub,2013-11-10 09:02:00,
2013-11-10 04:07:00,67.3,61.9,30.06,East,87,2.0,5.0,83,0.00,,,0.00,meteohub,2013-11-10 09:07:00,
2013-11-10 04:12:00,67.3,62.2,30.07,East,87,3.0,5.0,84,0.00,,,0.00,meteohub,2013-11-10 09:12:00,
2013-11-10 04:17:00,67.1,62.1,30.07,East,87,0.0,5.0,84,0.00,,,0.00,meteohub,2013-11-10 09:17:00,
2013-11-10 04:22:00,66.9,61.9,30.07,East,87,3.0,5.0,84,0.00,,,0.00,meteohub,2013-11-10 09:22:00,
2013-11-10 04:27:00,66.9,61.9,30.07,East,87,2.0,3.0,84,0.00,,,0.00,meteohub,2013-11-10 09:27:00,
2013-11-10 04:32:00,66.7,61.7,30.08,East,87,1.0,5.0,84,0.00,,,0.00,meteohub,2013-11-10 09:32:00,
2013-11-10 04:37:00,66.7,61.7,30.08,East,87,0.0,5.0,84,0.00,,,0.00,meteohub,2013-11-10 09:37:00,
2013-11-10 04:42:00,66.7,61.7,30.08,East,87,1.0,3.0,84,0.00,,,0.00,meteohub,2013-11-10 09:42:00,
2013-11-10 04:47:00,66.6,61.5,30.08,East,87,1.0,3.0,84,0.00,,,0.00,meteohub,2013-11-10 09:47:00,
2013-11-10 04:52:00,66.6,61.9,30.08,East,87,0.0,3.0,85,0.00,,,0.00,meteohub,2013-11-10 09:52:00,
2013-11-10 04:57:00,66.4,61.7,30.08,East,87,2.0,3.0,85,0.00,,,0.00,meteohub,2013-11-10 09:57:00,
2013-11-10 05:02:00,66.2,61.5,30.08,East,87,1.0,5.0,85,0.00,,,0.00,meteohub,2013-11-10 10:02:00,
2013-11-10 05:07:00,66.0,61.3,30.08,East,86,2.0,5.0,85,0.00,,,0.00,meteohub,2013-11-10 10:07:00,
2013-11-10 05:12:00,66.0,61.3,30.08,East,86,3.0,5.0,85,0.00,,,0.00,meteohub,2013-11-10 10:12:00,
2013-11-10 05:17:00,65.8,61.5,30.09,East,86,1.0,5.0,86,0.00,,,0.00,meteohub,2013-11-10 10:17:00,
2013-11-10 05:22:00,65.8,61.5,30.09,East,86,1.0,3.0,86,0.00,,,0.00,meteohub,2013-11-10 10:22:00,
2013-11-10 05:27:00,65.8,61.5,30.09,East,86,1.0,3.0,86,0.00,,,0.00,meteohub,2013-11-10 10:27:00,
2013-11-10 05:32:00,65.7,61.3,30.09,East,86,1.0,3.0,86,0.00,,,0.00,meteohub,2013-11-10 10:32:00,
2013-11-10 05:37:00,65.7,61.7,30.09,East,86,2.0,3.0,87,0.00,,,0.00,meteohub,2013-11-10 10:37:00,
2013-11-10 05:42:00,65.8,61.9,30.09,East,86,1.0,3.0,87,0.00,,,0.00,meteohub,2013-11-10 10:42:00,
2013-11-10 05:47:00,65.8,61.9,30.09,East,86,1.0,5.0,87,0.00,,,0.00,meteohub,2013-11-10 10:47:00,
2013-11-10 05:52:00,65.8,61.9,30.09,East,86,2.0,5.0,87,0.00,,,0.00,meteohub,2013-11-10 10:52:00,
2013-11-10 05:57:00,65.8,61.9,30.09,East,86,0.0,5.0,87,0.00,,,0.00,meteohub,2013-11-10 10:57:00,
2013-11-10 06:02:00,65.8,61.9,30.09,East,86,1.0,5.0,87,0.00,,,0.00,meteohub,2013-11-10 11:02:00,
2013-11-10 06:08:00,65.8,61.9,30.10,East,86,2.0,5.0,87,0.00,,,0.00,meteohub,2013-11-10 11:08:00,
2013-11-10 06:13:00,65.8,61.9,30.10,East,86,1.0,5.0,87,0.00,,,0.00,meteohub,2013-11-10 11:13:00,
2013-11-10 06:18:00,65.8,61.9,30.10,East,86,1.0,5.0,87,0.00,,,0.00,meteohub,2013-11-10 11:18:00,
2013-11-10 06:23:00,65.7,61.7,30.10,East,86,2.0,5.0,87,0.00,,,0.00,meteohub,2013-11-10 11:23:00,
2013-11-10 06:28:00,65.7,61.7,30.10,East,86,0.0,3.0,87,0.00,,,0.00,meteohub,2013-11-10 11:28:00,
2013-11-10 06:33:00,65.7,61.7,30.10,East,86,2.0,3.0,87,0.00,,,0.00,meteohub,2013-11-10 11:33:00,
2013-11-10 06:38:00,65.7,62.1,30.10,East,86,1.0,3.0,88,0.00,,,0.00,meteohub,2013-11-10 11:38:00,
2013-11-10 06:43:00,65.7,62.1,30.10,East,86,0.0,3.0,88,0.00,,,0.00,meteohub,2013-11-10 11:43:00,
2013-11-10 06:48:00,65.7,62.1,30.10,East,86,0.0,3.0,88,0.00,,,0.00,meteohub,2013-11-10 11:48:00,
2013-11-10 06:53:00,65.7,62.1,30.11,East,86,0.0,3.0,88,0.00,,,0.00,meteohub,2013-11-10 11:53:00,
2013-11-10 06:58:00,65.5,61.9,30.11,East,86,0.0,2.0,88,0.00,,,0.00,meteohub,2013-11-10 11:58:00,
2013-11-10 07:03:00,65.5,61.9,30.11,East,86,0.0,2.0,88,0.00,,,0.00,meteohub,2013-11-10 12:03:00,
2013-11-10 07:08:00,65.5,61.9,30.11,East,86,0.0,2.0,88,0.00,,,0.00,meteohub,2013-11-10 12:08:00,
2013-11-10 07:13:00,65.5,62.2,30.11,East,86,0.0,3.0,89,0.00,,,0.00,meteohub,2013-11-10 12:13:00,
2013-11-10 07:18:00,65.5,62.2,30.12,East,86,1.0,5.0,89,0.00,,,0.00,meteohub,2013-11-10 12:18:00,
2013-11-10 07:23:00,65.5,62.2,30.12,East,86,0.0,5.0,89,0.00,,,0.00,meteohub,2013-11-10 12:23:00,
2013-11-10 07:28:00,65.3,62.1,30.12,East,86,2.0,5.0,89,0.00,,,0.00,meteohub,2013-11-10 12:28:00,
2013-11-10 07:33:00,65.3,62.1,30.12,East,86,2.0,3.0,89,0.00,,,0.00,meteohub,2013-11-10 12:33:00,
2013-11-10 07:39:00,65.3,62.1,30.12,East,86,0.0,3.0,89,0.00,,,0.00,meteohub,2013-11-10 12:39:00,
2013-11-10 07:44:00,65.5,62.2,30.12,East,86,1.0,3.0,89,0.00,,,0.00,meteohub,2013-11-10 12:44:00,
2013-11-10 07:49:00,65.7,62.2,30.12,East,86,1.0,3.0,89,0.00,,,0.00,meteohub,2013-11-10 12:49:00,
2013-11-10 07:54:00,65.8,62.4,30.12,East,86,0.0,3.0,89,0.00,,,0.00,meteohub,2013-11-10 12:54:00,
2013-11-10 07:59:00,66.0,62.6,30.12,East,86,0.0,2.0,89,0.00,,,0.00,meteohub,2013-11-10 12:59:00,
2013-11-10 08:04:00,66.6,63.1,30.12,East,86,0.0,3.0,89,0.00,,,0.00,meteohub,2013-11-10 13:04:00,
2013-11-10 08:09:00,66.9,63.3,30.12,East,86,2.0,3.0,88,0.00,,,0.00,meteohub,2013-11-10 13:09:00,
2013-11-10 08:14:00,67.5,63.5,30.12,East,86,1.0,3.0,87,0.00,,,0.00,meteohub,2013-11-10 13:14:00,
2013-11-10 08:19:00,68.0,64.0,30.13,East,86,0.0,3.0,87,0.00,,,0.00,meteohub,2013-11-10 13:19:00,
2013-11-10 08:24:00,68.5,64.2,30.13,East,86,1.0,3.0,86,0.00,,,0.00,meteohub,2013-11-10 13:24:00,
2013-11-10 08:29:00,68.9,64.2,30.13,East,86,1.0,3.0,85,0.00,,,0.00,meteohub,2013-11-10 13:29:00,
2013-11-10 08:34:00,69.3,64.2,30.13,East,86,0.0,2.0,84,0.00,,,0.00,meteohub,2013-11-10 13:34:00,
2013-11-10 08:39:00,69.4,64.4,30.13,East,86,0.0,3.0,84,0.00,,,0.00,meteohub,2013-11-10 13:39:00,
2013-11-10 08:44:00,69.8,64.8,30.13,East,86,1.0,3.0,84,0.00,,,0.00,meteohub,2013-11-10 13:44:00,
2013-11-10 08:49:00,70.2,64.8,30.13,East,86,1.0,3.0,83,0.00,,,0.00,meteohub,2013-11-10 13:49:00,
2013-11-10 08:54:00,70.3,64.9,30.13,East,86,0.0,5.0,83,0.00,,,0.00,meteohub,2013-11-10 13:54:00,
2013-11-10 09:00:00,70.5,65.1,30.12,East,86,0.0,5.0,83,0.00,,,0.00,meteohub,2013-11-10 14:00:00,
2013-11-10 09:05:00,70.9,65.1,30.13,East,86,0.0,5.0,82,0.00,,,0.00,meteohub,2013-11-10 14:05:00,
2013-11-10 09:10:00,71.1,65.3,30.13,East,86,1.0,3.0,82,0.00,,,0.00,meteohub,2013-11-10 14:10:00,
2013-11-10 09:15:00,71.4,65.7,30.13,East,86,0.0,3.0,82,0.00,,,0.00,meteohub,2013-11-10 14:15:00,
2013-11-10 09:20:00,71.8,65.7,30.13,East,86,1.0,3.0,81,0.00,,,0.00,meteohub,2013-11-10 14:20:00,
2013-11-10 09:25:00,72.0,65.8,30.13,East,86,2.0,3.0,81,0.00,,,0.00,meteohub,2013-11-10 14:25:00,
2013-11-10 09:30:00,72.3,65.8,30.13,East,86,2.0,5.0,80,0.00,,,0.00,meteohub,2013-11-10 14:30:00,
2013-11-10 09:35:00,72.9,66.0,30.14,East,86,2.0,5.0,79,0.00,,,0.00,meteohub,2013-11-10 14:35:00,
2013-11-10 09:40:00,73.4,66.2,30.14,East,86,2.0,5.0,78,0.00,,,0.00,meteohub,2013-11-10 14:40:00,
2013-11-10 09:45:00,73.8,66.4,30.14,East,85,3.0,5.0,78,0.00,,,0.00,meteohub,2013-11-10 14:45:00,
2013-11-10 09:50:00,73.9,66.6,30.13,East,85,0.0,5.0,78,0.00,,,0.00,meteohub,2013-11-10 14:50:00,
2013-11-10 09:55:00,74.3,66.6,30.13,East,85,1.0,5.0,77,0.00,,,0.00,meteohub,2013-11-10 14:55:00,
2013-11-10 10:00:00,74.7,66.9,30.13,East,85,0.0,5.0,77,0.00,,,0.00,meteohub,2013-11-10 15:00:00,
2013-11-10 10:06:00,74.8,67.1,30.13,East,85,2.0,2.0,77,0.00,,,0.00,meteohub,2013-11-10 15:06:00,
2013-11-10 10:11:00,75.0,66.6,30.13,East,85,2.0,3.0,75,0.00,,,0.00,meteohub,2013-11-10 15:11:00,
2013-11-10 10:16:00,75.4,66.9,30.13,East,85,1.0,3.0,75,0.00,,,0.00,meteohub,2013-11-10 15:16:00,
2013-11-10 10:21:00,76.6,67.3,30.13,East,85,6.0,6.0,73,0.00,,,0.00,meteohub,2013-11-10 15:21:00,
2013-11-10 10:26:00,77.4,67.3,30.13,East,85,2.0,6.0,71,0.00,,,0.00,meteohub,2013-11-10 15:26:00,
2013-11-10 10:31:00,77.2,66.6,30.13,East,85,5.0,6.0,70,0.00,,,0.00,meteohub,2013-11-10 15:31:00,
2013-11-10 10:36:00,76.8,67.1,30.13,East,85,0.0,6.0,72,0.00,,,0.00,meteohub,2013-11-10 15:36:00,
2013-11-10 10:41:00,77.5,67.8,30.13,East,85,2.0,5.0,72,0.00,,,0.00,meteohub,2013-11-10 15:41:00,
2013-11-10 10:46:00,78.6,68.0,30.13,East,85,0.0,5.0,70,0.00,,,0.00,meteohub,2013-11-10 15:46:00,
2013-11-10 10:51:00,79.5,68.5,30.13,East,84,1.0,5.0,69,0.00,,,0.00,meteohub,2013-11-10 15:51:00,
2013-11-10 10:56:00,79.7,68.2,30.13,East,84,3.0,3.0,68,0.00,,,0.00,meteohub,2013-11-10 15:56:00,
2013-11-10 11:01:00,79.5,68.0,30.13,East,84,1.0,3.0,68,0.00,,,0.00,meteohub,2013-11-10 16:01:00,
2013-11-10 11:06:00,79.2,68.2,30.13,East,82,3.0,7.0,69,0.00,,,0.00,meteohub,2013-11-10 16:06:00,
2013-11-10 11:11:00,79.2,68.2,30.13,NNE,32,1.0,7.0,69,0.00,,,0.00,meteohub,2013-11-10 16:11:00,
2013-11-10 11:16:00,79.3,68.4,30.12,NNE,32,1.0,7.0,69,0.00,,,0.00,meteohub,2013-11-10 16:16:00,
2013-11-10 11:21:00,79.3,67.8,30.12,SSE,155,2.0,4.0,68,0.00,,,0.00,meteohub,2013-11-10 16:21:00,
2013-11-10 11:26:00,79.2,68.2,30.12,SSE,154,0.0,4.0,69,0.00,,,0.00,meteohub,2013-11-10 16:26:00,
2013-11-10 11:32:00,79.3,67.8,30.12,East,79,0.0,4.0,68,0.00,,,0.00,meteohub,2013-11-10 16:32:00,
2013-11-10 11:37:00,79.3,67.8,30.12,East,79,1.0,5.0,68,0.00,,,0.00,meteohub,2013-11-10 16:37:00,
2013-11-10 11:42:00,80.1,68.9,30.12,East,79,0.0,5.0,69,0.00,,,0.00,meteohub,2013-11-10 16:42:00,
2013-11-10 11:47:00,80.8,68.7,30.12,East,79,1.0,2.0,67,0.00,,,0.00,meteohub,2013-11-10 16:47:00,
2013-11-10 11:52:00,81.1,68.2,30.11,ENE,75,0.0,2.0,65,0.00,,,0.00,meteohub,2013-11-10 16:52:00,
2013-11-10 11:57:00,81.5,68.2,30.11,NW,318,4.0,5.0,64,0.00,,,0.00,meteohub,2013-11-10 16:57:00,
2013-11-10 12:02:00,81.9,67.6,30.11,NW,316,1.0,6.0,62,0.00,,,0.00,meteohub,2013-11-10 17:02:00,
2013-11-10 12:07:00,82.0,67.6,30.11,NW,316,0.0,6.0,62,0.00,,,0.00,meteohub,2013-11-10 17:07:00,
2013-11-10 12:12:00,82.8,68.4,30.10,NW,316,2.0,6.0,62,0.00,,,0.00,meteohub,2013-11-10 17:12:00,
2013-11-10 12:17:00,83.3,66.6,30.10,NW,315,3.0,4.0,57,0.00,,,0.00,meteohub,2013-11-10 17:17:00,
2013-11-10 12:22:00,83.1,66.7,30.10,NW,315,1.0,8.0,58,0.00,,,0.00,meteohub,2013-11-10 17:22:00,
2013-11-10 12:27:00,83.7,66.4,30.10,NW,315,1.0,8.0,56,0.00,,,0.00,meteohub,2013-11-10 17:27:00,
2013-11-10 12:32:00,84.0,67.1,30.09,NW,315,3.0,8.0,57,0.00,,,0.00,meteohub,2013-11-10 17:32:00,
2013-11-10 12:37:00,83.7,67.3,30.09,ENE,78,3.0,7.0,58,0.00,,,0.00,meteohub,2013-11-10 17:37:00,
2013-11-10 12:42:00,83.1,66.4,30.09,North,355,2.0,7.0,57,0.00,,,0.00,meteohub,2013-11-10 17:42:00,
2013-11-10 12:47:00,83.1,66.4,30.08,North,0,2.0,8.0,57,0.00,,,0.00,meteohub,2013-11-10 17:47:00,
2013-11-10 12:52:00,83.5,66.2,30.08,NNE,30,3.0,8.0,56,0.00,,,0.00,meteohub,2013-11-10 17:52:00,
2013-11-10 12:57:00,83.5,66.2,30.08,North,11,3.0,7.0,56,0.00,,,0.00,meteohub,2013-11-10 17:57:00,
2013-11-10 13:02:00,83.8,66.4,30.08,NW,316,1.0,8.0,56,0.00,,,0.00,meteohub,2013-11-10 18:02:00,
2013-11-10 13:07:00,84.0,69.1,30.08,NW,316,3.0,8.0,61,0.00,,,0.00,meteohub,2013-11-10 18:07:00,
2013-11-10 13:12:00,83.1,69.3,30.07,NNW,327,3.0,7.0,63,0.00,,,0.00,meteohub,2013-11-10 18:12:00,
2013-11-10 13:17:00,83.1,69.3,30.07,NNW,330,5.0,7.0,63,0.00,,,0.00,meteohub,2013-11-10 18:17:00,
2013-11-10 13:22:00,83.3,68.9,30.06,NNW,329,3.0,7.0,62,0.00,,,0.00,meteohub,2013-11-10 18:22:00,
2013-11-10 13:27:00,83.8,68.9,30.06,WNW,288,4.0,7.0,61,0.00,,,0.00,meteohub,2013-11-10 18:27:00,
2013-11-10 13:32:00,84.0,68.7,30.06,WNW,288,1.0,6.0,60,0.00,,,0.00,meteohub,2013-11-10 18:32:00,
2013-11-10 13:37:00,83.7,68.7,30.06,WNW,288,2.0,6.0,61,0.00,,,0.00,meteohub,2013-11-10 18:37:00,
2013-11-10 13:42:00,83.1,69.6,30.06,WNW,286,4.0,6.0,64,0.00,,,0.00,meteohub,2013-11-10 18:42:00,
2013-11-10 13:47:00,81.7,68.7,30.06,West,271,3.0,8.0,65,0.00,,,0.00,meteohub,2013-11-10 18:47:00,
2013-11-10 13:52:00,80.8,68.7,30.06,West,272,3.0,8.0,67,0.00,,,0.00,meteohub,2013-11-10 18:52:00,
2013-11-10 13:57:00,80.8,69.3,30.06,West,272,0.0,7.0,68,0.00,,,0.00,meteohub,2013-11-10 18:57:00,
2013-11-10 14:02:00,81.0,66.7,30.05,West,272,0.0,5.0,62,0.00,,,0.00,meteohub,2013-11-10 19:02:00,
2013-11-10 14:07:00,81.0,64.8,30.05,NNE,15,1.0,5.0,58,0.00,,,0.00,meteohub,2013-11-10 19:07:00,
2013-11-10 14:12:00,81.0,64.8,30.05,NNE,17,3.0,6.0,58,0.00,,,0.00,meteohub,2013-11-10 19:12:00,
2013-11-10 14:17:00,81.1,65.5,30.05,East,89,0.0,6.0,59,0.00,,,0.00,meteohub,2013-11-10 19:17:00,
2013-11-10 14:22:00,81.3,65.7,30.05,NNE,21,2.0,6.0,59,0.00,,,0.00,meteohub,2013-11-10 19:22:00,
2013-11-10 14:27:00,81.7,65.5,30.04,NNE,24,4.0,6.0,58,0.00,,,0.00,meteohub,2013-11-10 19:27:00,
2013-11-10 14:32:00,81.7,66.0,30.04,NNE,24,1.0,6.0,59,0.00,,,0.00,meteohub,2013-11-10 19:32:00,
2013-11-10 14:37:00,81.7,66.0,30.04,NNE,24,3.0,4.0,59,0.00,,,0.00,meteohub,2013-11-10 19:37:00,
2013-11-10 14:42:00,82.0,66.7,30.04,NNE,24,1.0,4.0,60,0.00,,,0.00,meteohub,2013-11-10 19:42:00,
2013-11-10 14:47:00,81.9,66.6,30.04,NNE,27,3.0,5.0,60,0.00,,,0.00,meteohub,2013-11-10 19:47:00,
2013-11-10 14:52:00,81.5,66.7,30.04,NNE,23,1.0,5.0,61,0.00,,,0.00,meteohub,2013-11-10 19:52:00,
2013-11-10 14:57:00,81.7,66.9,30.04,North,355,3.0,5.0,61,0.00,,,0.00,meteohub,2013-11-10 19:57:00,
2013-11-10 15:02:00,81.9,67.1,30.04,North,355,0.0,6.0,61,0.00,,,0.00,meteohub,2013-11-10 20:02:00,
2013-11-10 15:07:00,82.4,67.6,30.04,North,355,1.0,6.0,61,0.00,,,0.00,meteohub,2013-11-10 20:07:00,
2013-11-10 15:12:00,82.8,67.5,30.04,North,355,2.0,5.0,60,0.00,,,0.00,meteohub,2013-11-10 20:12:00,
2013-11-10 15:17:00,82.8,68.4,30.04,North,5,1.0,6.0,62,0.00,,,0.00,meteohub,2013-11-10 20:17:00,
2013-11-10 15:22:00,82.8,66.9,30.04,NNE,32,4.0,6.0,59,0.00,,,0.00,meteohub,2013-11-10 20:22:00,
2013-11-10 15:27:00,82.2,66.9,30.04,North,9,1.0,6.0,60,0.00,,,0.00,meteohub,2013-11-10 20:27:00,
2013-11-10 15:32:00,81.9,66.2,30.04,NNE,30,2.0,6.0,59,0.00,,,0.00,meteohub,2013-11-10 20:32:00,
2013-11-10 15:37:00,81.7,66.4,30.04,NNE,16,0.0,6.0,60,0.00,,,0.00,meteohub,2013-11-10 20:37:00,
2013-11-10 15:42:00,81.3,66.0,30.04,NNE,16,2.0,5.0,60,0.00,,,0.00,meteohub,2013-11-10 20:42:00,
2013-11-10 15:47:00,81.1,66.0,30.04,NNW,346,0.0,5.0,60,0.00,,,0.00,meteohub,2013-11-10 20:47:00,
2013-11-10 15:52:00,80.8,66.0,30.04,NNW,348,3.0,5.0,61,0.00,,,0.00,meteohub,2013-11-10 20:52:00,
2013-11-10 15:58:00,80.4,65.7,30.04,NE,55,0.0,5.0,61,0.00,,,0.00,meteohub,2013-11-10 20:58:00,
2013-11-10 16:03:00,80.1,65.5,30.04,NE,53,0.0,4.0,61,0.00,,,0.00,meteohub,2013-11-10 21:03:00,
2013-11-10 16:08:00,80.1,65.8,30.04,NE,53,1.0,5.0,62,0.00,,,0.00,meteohub,2013-11-10 21:08:00,
2013-11-10 16:13:00,80.1,65.5,30.04,NE,50,2.0,5.0,61,0.00,,,0.00,meteohub,2013-11-10 21:13:00,
2013-11-10 16:18:00,80.1,65.8,30.05,NE,51,1.0,4.0,62,0.00,,,0.00,meteohub,2013-11-10 21:18:00,
2013-11-10 16:23:00,80.2,66.0,30.05,NE,51,1.0,4.0,62,0.00,,,0.00,meteohub,2013-11-10 21:23:00,
2013-11-10 16:28:00,80.2,66.0,30.05,NE,51,2.0,4.0,62,0.00,,,0.00,meteohub,2013-11-10 21:28:00,
2013-11-10 16:33:00,80.1,66.4,30.04,East,86,5.0,5.0,63,0.00,,,0.00,meteohub,2013-11-10 21:33:00,
2013-11-10 16:38:00,80.2,66.0,30.04,East,86,0.0,6.0,62,0.00,,,0.00,meteohub,2013-11-10 21:38:00,
2013-11-10 16:43:00,80.2,66.0,30.04,East,86,0.0,6.0,62,0.00,,,0.00,meteohub,2013-11-10 21:43:00,
2013-11-10 16:48:00,80.2,66.0,30.04,East,86,1.0,6.0,62,0.00,,,0.00,meteohub,2013-11-10 21:48:00,
2013-11-10 16:53:00,80.1,65.8,30.04,East,86,1.0,5.0,62,0.00,,,0.00,meteohub,2013-11-10 21:53:00,
2013-11-10 16:58:00,80.1,66.4,30.05,East,86,0.0,5.0,63,0.00,,,0.00,meteohub,2013-11-10 21:58:00,
2013-11-10 17:03:00,80.1,66.7,30.05,East,86,1.0,3.0,64,0.00,,,0.00,meteohub,2013-11-10 22:03:00,
2013-11-10 17:08:00,79.7,66.4,30.05,East,86,2.0,5.0,64,0.00,,,0.00,meteohub,2013-11-10 22:08:00,
2013-11-10 17:13:00,79.3,66.6,30.05,East,86,1.0,5.0,65,0.00,,,0.00,meteohub,2013-11-10 22:13:00,
2013-11-10 17:18:00,79.2,66.7,30.05,East,86,2.0,5.0,66,0.00,,,0.00,meteohub,2013-11-10 22:18:00,
2013-11-10 17:23:00,78.8,66.6,30.05,East,85,0.0,3.0,66,0.00,,,0.00,meteohub,2013-11-10 22:23:00,
2013-11-10 17:28:00,78.4,67.8,30.05,East,86,2.0,5.0,70,0.00,,,0.00,meteohub,2013-11-10 22:28:00,
2013-11-10 17:34:00,77.4,68.0,30.05,NW,313,4.0,5.0,73,0.00,,,0.00,meteohub,2013-11-10 22:34:00,
2013-11-10 17:39:00,76.3,67.8,30.05,NW,313,2.0,5.0,75,0.00,,,0.00,meteohub,2013-11-10 22:39:00,
2013-11-10 17:44:00,75.7,67.3,30.05,NW,314,1.0,6.0,75,0.00,,,0.00,meteohub,2013-11-10 22:44:00,
2013-11-10 17:49:00,75.2,67.1,30.06,NW,323,5.0,6.0,76,0.00,,,0.00,meteohub,2013-11-10 22:49:00,
2013-11-10 17:54:00,74.7,66.6,30.06,NW,324,0.0,6.0,76,0.00,,,0.00,meteohub,2013-11-10 22:54:00,
2013-11-10 17:59:00,74.3,66.6,30.06,NW,324,2.0,6.0,77,0.00,,,0.00,meteohub,2013-11-10 22:59:00,
2013-11-10 18:04:00,73.9,66.2,30.06,NW,324,1.0,6.0,77,0.00,,,0.00,meteohub,2013-11-10 23:04:00,
2013-11-10 18:09:00,73.6,66.4,30.06,NW,324,2.0,5.0,78,0.00,,,0.00,meteohub,2013-11-10 23:09:00,
2013-11-10 18:14:00,73.4,66.2,30.06,NW,324,3.0,6.0,78,0.00,,,0.00,meteohub,2013-11-10 23:14:00,
2013-11-10 18:19:00,73.2,66.0,30.07,NW,324,0.0,6.0,78,0.00,,,0.00,meteohub,2013-11-10 23:19:00,
2013-11-10 18:24:00,73.0,66.2,30.07,NW,324,0.0,6.0,79,0.00,,,0.00,meteohub,2013-11-10 23:24:00,
2013-11-10 18:29:00,72.9,66.0,30.07,NW,324,1.0,6.0,79,0.00,,,0.00,meteohub,2013-11-10 23:29:00,
2013-11-10 18:34:00,72.7,65.8,30.06,NW,324,0.0,4.0,79,0.00,,,0.00,meteohub,2013-11-10 23:34:00,
2013-11-10 18:39:00,72.5,66.0,30.07,NW,324,1.0,4.0,80,0.00,,,0.00,meteohub,2013-11-10 23:39:00,
2013-11-10 18:45:00,72.3,65.8,30.07,NW,324,1.0,4.0,80,0.00,,,0.00,meteohub,2013-11-10 23:45:00,
2013-11-10 18:50:00,72.1,66.0,30.07,NW,324,0.0,4.0,81,0.00,,,0.00,meteohub,2013-11-10 23:50:00,
2013-11-10 18:55:00,72.0,65.8,30.07,NW,324,0.0,4.0,81,0.00,,,0.00,meteohub,2013-11-10 23:55:00,
2013-11-10 19:00:00,72.0,66.2,30.07,NW,324,0.0,2.0,82,0.00,,,0.00,meteohub,2013-11-11 00:00:00,
2013-11-10 19:05:00,71.8,66.0,30.07,NW,324,1.0,4.0,82,0.00,,,0.00,meteohub,2013-11-11 00:05:00,
2013-11-10 19:10:00,71.6,66.2,30.07,NW,324,1.0,4.0,83,0.00,,,0.00,meteohub,2013-11-11 00:10:00,
2013-11-10 19:15:00,71.4,66.0,30.07,NW,324,0.0,4.0,83,0.00,,,0.00,meteohub,2013-11-11 00:15:00,
2013-11-10 19:20:00,71.2,65.8,30.07,NW,324,0.0,4.0,83,0.00,,,0.00,meteohub,2013-11-11 00:20:00,
2013-11-10 19:25:00,71.2,66.2,30.08,NW,324,0.0,4.0,84,0.00,,,0.00,meteohub,2013-11-11 00:25:00,
2013-11-10 19:30:00,71.1,66.0,30.08,NW,324,0.0,4.0,84,0.00,,,0.00,meteohub,2013-11-11 00:30:00,
2013-11-10 19:35:00,71.1,66.0,30.08,NW,324,2.0,4.0,84,0.00,,,0.00,meteohub,2013-11-11 00:35:00,
2013-11-10 19:40:00,70.9,66.2,30.08,NW,324,0.0,4.0,85,0.00,,,0.00,meteohub,2013-11-11 00:40:00,
2013-11-10 19:45:00,70.7,66.0,30.08,NW,324,0.0,3.0,85,0.00,,,0.00,meteohub,2013-11-11 00:45:00,
2013-11-10 19:50:00,70.5,65.8,30.08,NW,324,0.0,3.0,85,0.00,,,0.00,meteohub,2013-11-11 00:50:00,
2013-11-10 19:55:00,70.3,66.0,30.08,NW,324,0.0,2.0,86,0.00,,,0.00,meteohub,2013-11-11 00:55:00,
2013-11-10 20:00:00,70.3,66.0,30.08,NW,324,0.0,2.0,86,0.00,,,0.00,meteohub,2013-11-11 01:00:00,
2013-11-10 20:05:00,70.2,65.8,30.08,NW,324,0.0,2.0,86,0.00,,,0.00,meteohub,2013-11-11 01:05:00,
2013-11-10 20:10:00,70.0,65.7,30.08,NW,324,0.0,2.0,86,0.00,,,0.00,meteohub,2013-11-11 01:10:00,
2013-11-10 20:16:00,70.0,66.0,30.08,NW,324,0.0,2.0,87,0.00,,,0.00,meteohub,2013-11-11 01:16:00,
2013-11-10 20:21:00,70.0,66.0,30.08,NW,324,0.0,3.0,87,0.00,,,0.00,meteohub,2013-11-11 01:21:00,
2013-11-10 20:26:00,70.0,65.7,30.09,NW,324,0.0,3.0,86,0.00,,,0.00,meteohub,2013-11-11 01:26:00,
2013-11-10 20:31:00,70.0,66.0,30.09,NW,324,0.0,3.0,87,0.00,,,0.00,meteohub,2013-11-11 01:31:00,
2013-11-10 20:36:00,70.0,66.0,30.09,NW,324,1.0,2.0,87,0.00,,,0.00,meteohub,2013-11-11 01:36:00,
2013-11-10 20:41:00,70.3,65.7,30.09,NW,324,0.0,2.0,85,0.00,,,0.00,meteohub,2013-11-11 01:41:00,
2013-11-10 20:46:00,70.7,65.7,30.09,NW,324,0.0,3.0,84,0.00,,,0.00,meteohub,2013-11-11 01:46:00,
2013-11-10 20:51:00,71.1,65.7,30.09,NW,324,0.0,3.0,83,0.00,,,0.00,meteohub,2013-11-11 01:51:00,
2013-11-10 20:56:00,71.1,65.7,30.09,NW,324,1.0,3.0,83,0.00,,,0.00,meteohub,2013-11-11 01:56:00,
2013-11-10 21:01:00,71.2,65.5,30.09,NW,324,1.0,3.0,82,0.00,,,0.00,meteohub,2013-11-11 02:01:00,
2013-11-10 21:06:00,71.4,65.7,30.09,NW,324,1.0,2.0,82,0.00,,,0.00,meteohub,2013-11-11 02:06:00,
2013-11-10 21:11:00,71.4,65.7,30.09,NW,324,0.0,2.0,82,0.00,,,0.00,meteohub,2013-11-11 02:11:00,
2013-11-10 21:16:00,71.4,65.3,30.10,NW,324,1.0,3.0,81,0.00,,,0.00,meteohub,2013-11-11 02:16:00,
2013-11-10 21:21:00,71.4,65.3,30.09,NW,324,0.0,3.0,81,0.00,,,0.00,meteohub,2013-11-11 02:21:00,
2013-11-10 21:26:00,71.4,65.3,30.09,NW,324,0.0,2.0,81,0.00,,,0.00,meteohub,2013-11-11 02:26:00,
2013-11-10 21:31:00,71.4,65.3,30.09,NW,325,2.0,2.0,81,0.00,,,0.00,meteohub,2013-11-11 02:31:00,
2013-11-10 21:36:00,71.4,65.3,30.09,NNW,327,0.0,4.0,81,0.00,,,0.00,meteohub,2013-11-11 02:36:00,
2013-11-10 21:41:00,71.4,65.3,30.09,NNW,338,0.0,4.0,81,0.00,,,0.00,meteohub,2013-11-11 02:41:00,
2013-11-10 21:46:00,71.4,65.7,30.09,NNW,338,2.0,4.0,82,0.00,,,0.00,meteohub,2013-11-11 02:46:00,
2013-11-10 21:52:00,71.4,65.7,30.09,NNW,338,1.0,4.0,82,0.00,,,0.00,meteohub,2013-11-11 02:52:00,
2013-11-10 21:57:00,71.2,65.5,30.09,NNW,342,2.0,4.0,82,0.00,,,0.00,meteohub,2013-11-11 02:57:00,
2013-11-10 22:02:00,71.2,65.5,30.10,East,99,1.0,4.0,82,0.00,,,0.00,meteohub,2013-11-11 03:02:00,
2013-11-10 22:07:00,71.2,65.5,30.10,East,99,2.0,4.0,82,0.00,,,0.00,meteohub,2013-11-11 03:07:00,
2013-11-10 22:12:00,71.2,65.5,30.10,East,99,2.0,5.0,82,0.00,,,0.00,meteohub,2013-11-11 03:12:00,
2013-11-10 22:17:00,71.1,65.7,30.10,East,99,1.0,5.0,83,0.00,,,0.00,meteohub,2013-11-11 03:17:00,
2013-11-10 22:22:00,71.1,65.7,30.10,East,99,2.0,5.0,83,0.00,,,0.00,meteohub,2013-11-11 03:22:00,
2013-11-10 22:27:00,71.1,65.7,30.10,East,99,1.0,5.0,83,0.00,,,0.00,meteohub,2013-11-11 03:27:00,
2013-11-10 22:32:00,71.1,65.7,30.10,East,99,1.0,5.0,83,0.00,,,0.00,meteohub,2013-11-11 03:32:00,
2013-11-10 22:37:00,70.9,65.5,30.10,East,99,1.0,5.0,83,0.00,,,0.00,meteohub,2013-11-11 03:37:00,
2013-11-10 22:42:00,70.7,65.7,30.10,East,99,0.0,3.0,84,0.00,,,0.00,meteohub,2013-11-11 03:42:00,
2013-11-10 22:47:00,70.5,65.5,30.10,East,99,1.0,2.0,84,0.00,,,0.00,meteohub,2013-11-11 03:47:00,
2013-11-10 22:52:00,70.3,65.3,30.10,East,99,2.0,3.0,84,0.00,,,0.00,meteohub,2013-11-11 03:52:00,
2013-11-10 22:57:00,70.3,65.7,30.10,East,99,1.0,3.0,85,0.00,,,0.00,meteohub,2013-11-11 03:57:00,
2013-11-10 23:02:00,70.3,65.7,30.10,East,99,1.0,3.0,85,0.00,,,0.00,meteohub,2013-11-11 04:02:00,
2013-11-10 23:07:00,70.2,65.5,30.10,East,99,0.0,3.0,85,0.00,,,0.00,meteohub,2013-11-11 04:07:00,
2013-11-10 23:12:00,70.2,65.5,30.10,East,99,2.0,3.0,85,0.00,,,0.00,meteohub,2013-11-11 04:12:00,
2013-11-10 23:17:00,70.0,65.7,30.10,East,99,1.0,3.0,86,0.00,,,0.00,meteohub,2013-11-11 04:17:00,
2013-11-10 23:22:00,70.0,65.7,30.10,East,99,2.0,3.0,86,0.00,,,0.00,meteohub,2013-11-11 04:22:00,
2013-11-10 23:27:00,69.8,65.5,30.10,East,99,0.0,3.0,86,0.00,,,0.00,meteohub,2013-11-11 04:27:00,
2013-11-10 23:32:00,69.8,65.5,30.10,East,99,0.0,3.0,86,0.00,,,0.00,meteohub,2013-11-11 04:32:00,
2013-11-10 23:37:00,69.6,65.7,30.10,East,99,1.0,3.0,87,0.00,,,0.00,meteohub,2013-11-11 04:37:00,
2013-11-10 23:42:00,69.6,65.7,30.10,East,99,1.0,3.0,87,0.00,,,0.00,meteohub,2013-11-11 04:42:00,
2013-11-10 23:47:00,69.6,65.7,30.10,East,99,0.0,3.0,87,0.00,,,0.00,meteohub,2013-11-11 04:47:00,
2013-11-10 23:52:00,69.4,65.5,30.10,East,99,3.0,3.0,87,0.00,,,0.00,meteohub,2013-11-11 04:52:00,
2013-11-10 23:57:00,69.4,65.5,30.10,East,99,1.0,5.0,87,0.00,,,0.00,meteohub,2013-11-11 04:57:00,